createdAt,value
2023-05-08T00:01:05.109Z,8.73
2023-05-08T00:03:32.316Z,7.45
2023-05-08T00:05:59.676Z,6.60
2023-05-08T00:08:26.751Z,6.70
2023-05-08T00:10:53.588Z,7.80
2023-05-08T00:13:20.812Z,8.23
2023-05-08T00:15:47.997Z,7.40
2023-05-08T00:18:14.989Z,7.32
2023-05-08T00:20:42.070Z,6.93
2023-05-08T00:23:08.940Z,6.47
2023-05-08T00:25:35.738Z,6.10
2023-05-08T00:28:02.649Z,6.57
2023-05-08T00:30:29.648Z,7.00
2023-05-08T00:32:56.661Z,6.38
2023-05-08T00:35:23.831Z,6.50
2023-05-08T00:37:50.673Z,6.50
2023-05-08T00:40:17.639Z,6.00
2023-05-08T00:42:44.552Z,6.40
2023-05-08T00:45:11.581Z,5.95
2023-05-08T00:47:38.908Z,6.05
2023-05-08T00:50:06.851Z,6.20
2023-05-08T00:52:33.974Z,6.60
2023-05-08T00:55:02.608Z,6.40
2023-05-08T00:57:32.445Z,7.15
2023-05-08T01:00:01.375Z,6.70
2023-05-08T01:02:31.555Z,6.82
2023-05-08T01:04:58.859Z,6.38
2023-05-08T01:07:26.150Z,5.82
2023-05-08T01:09:53.507Z,5.63
2023-05-08T01:12:47.743Z,6.32
2023-05-08T01:15:20.963Z,6.53
2023-05-08T01:18:08.824Z,6.03
2023-05-08T01:20:40.733Z,6.05
2023-05-08T01:23:20.099Z,5.60
2023-05-08T01:25:53.033Z,6.65
2023-05-08T01:28:35.304Z,6.97
2023-05-08T01:31:26.291Z,7.00
2023-05-08T01:33:59.188Z,6.40
2023-05-08T01:36:40.515Z,5.47
2023-05-08T01:39:22.623Z,6.15
2023-05-08T01:41:58.838Z,7.70
2023-05-08T01:44:32.037Z,6.32
2023-05-08T01:47:02.283Z,7.30
2023-05-08T01:49:38.612Z,8.88
2023-05-08T01:52:21.336Z,6.90
2023-05-08T01:54:58.804Z,5.10
2023-05-08T01:57:29.017Z,5.78
2023-05-08T01:59:59.948Z,6.00
2023-05-08T02:02:30.218Z,5.07
2023-05-08T02:04:58.360Z,4.03
2023-05-08T02:07:26.763Z,4.20
2023-05-08T02:09:55.531Z,4.50
2023-05-08T02:12:23.145Z,4.75
2023-05-08T02:14:52.999Z,3.70
2023-05-08T02:17:21.084Z,4.03
2023-05-08T02:19:49.628Z,5.10
2023-05-08T02:22:18.220Z,5.25
2023-05-08T02:24:46.580Z,4.50
2023-05-08T02:27:14.815Z,4.85
2023-05-08T02:29:42.843Z,4.57
2023-05-08T02:32:10.397Z,4.97
2023-05-08T02:34:40.944Z,4.70
2023-05-08T02:37:13.536Z,5.70
2023-05-08T02:39:42.639Z,5.03
2023-05-08T02:42:09.934Z,4.30
2023-05-08T02:44:37.132Z,2.73
2023-05-08T02:47:22.268Z,2.90
2023-05-08T02:49:53.362Z,3.05
2023-05-08T02:52:25.118Z,2.80
2023-05-08T02:54:57.521Z,3.25
2023-05-08T02:57:37.669Z,3.10
2023-05-08T03:00:14.230Z,2.90
2023-05-08T03:02:48.033Z,2.40
2023-05-08T03:05:24.553Z,2.72
2023-05-08T03:07:54.734Z,2.85
2023-05-08T03:10:25.228Z,3.38
2023-05-08T03:12:56.021Z,2.90
2023-05-08T03:15:44.793Z,3.50
2023-05-08T03:18:20.367Z,4.38
2023-05-08T03:20:51.161Z,5.60
2023-05-08T03:23:21.663Z,5.78
2023-05-08T03:25:48.825Z,6.57
2023-05-08T03:28:19.408Z,5.85
2023-05-08T03:30:47.095Z,6.17
2023-05-08T03:33:17.618Z,6.60
2023-05-08T03:35:46.367Z,6.20
2023-05-08T03:38:13.678Z,6.00
2023-05-08T03:40:42.820Z,6.07
2023-05-08T03:43:12.083Z,7.93
2023-05-08T03:45:41.060Z,9.30
2023-05-08T03:48:09.640Z,7.45
2023-05-08T03:50:38.611Z,4.00
2023-05-08T03:53:08.543Z,4.05
2023-05-08T03:55:36.466Z,5.43
2023-05-08T03:58:24.590Z,4.70
2023-05-08T04:01:13.718Z,3.80
2023-05-08T04:03:52.985Z,3.83
2023-05-08T04:06:30.682Z,4.45
2023-05-08T04:09:22.116Z,4.10
2023-05-08T04:12:14.352Z,4.85
2023-05-08T04:14:49.745Z,5.90
2023-05-08T04:17:30.970Z,6.20
2023-05-08T04:20:04.467Z,13.38
2023-05-08T04:22:33.932Z,16.73
2023-05-08T04:25:04.480Z,13.85
2023-05-08T04:27:31.864Z,15.68
2023-05-08T04:29:59.192Z,12.93
2023-05-08T04:32:27.525Z,11.40
2023-05-08T04:34:55.550Z,12.65
2023-05-08T04:37:27.891Z,10.45
2023-05-08T04:39:57.231Z,10.80
2023-05-08T04:42:25.987Z,10.75
2023-05-08T04:44:54.918Z,11.90
2023-05-08T04:47:22.307Z,9.80
2023-05-08T04:49:49.165Z,11.15
2023-05-08T04:52:16.287Z,13.48
2023-05-08T04:54:43.250Z,12.98
2023-05-08T04:57:10.653Z,14.32
2023-05-08T04:59:37.583Z,14.05
2023-05-08T05:02:08.213Z,14.57
2023-05-08T05:04:36.791Z,14.00
2023-05-08T05:07:04.749Z,13.32
2023-05-08T05:09:35.122Z,16.35
2023-05-08T05:12:01.936Z,15.13
2023-05-08T05:14:30.683Z,16.30
2023-05-08T05:16:58.175Z,17.45
2023-05-08T05:19:25.517Z,16.40
2023-05-08T05:21:52.733Z,15.57
2023-05-08T05:24:19.802Z,17.73
2023-05-08T05:26:46.626Z,19.23
2023-05-08T05:29:13.517Z,18.63
2023-05-08T05:31:40.612Z,20.38
2023-05-08T05:34:08.091Z,20.33
2023-05-08T05:36:35.331Z,22.42
2023-05-08T05:39:03.249Z,18.75
2023-05-08T05:41:30.748Z,22.47
2023-05-08T05:43:57.908Z,21.77
2023-05-08T05:46:32.581Z,20.55
2023-05-08T05:49:02.104Z,19.95
2023-05-08T05:51:29.534Z,18.52
2023-05-08T05:53:57.275Z,17.63
2023-05-08T05:56:25.332Z,16.73
2023-05-08T05:58:52.687Z,16.65
2023-05-08T06:01:20.033Z,16.33
2023-05-08T06:03:47.634Z,16.40
2023-05-08T06:06:14.641Z,16.80
2023-05-08T06:08:41.803Z,17.95
2023-05-08T06:11:08.802Z,18.40
2023-05-08T06:13:36.006Z,19.38
2023-05-08T06:16:02.982Z,21.70
2023-05-08T06:18:30.299Z,20.02
2023-05-08T06:20:58.387Z,22.05
2023-05-08T06:23:26.176Z,25.75
2023-05-08T06:25:54.095Z,24.13
2023-05-08T06:28:22.575Z,25.83
2023-05-08T06:30:49.584Z,25.52
2023-05-08T06:33:16.578Z,23.00
2023-05-08T06:35:47.639Z,24.07
2023-05-08T06:38:14.939Z,24.30
2023-05-08T06:40:43.895Z,23.80
2023-05-08T06:43:11.519Z,26.20
2023-05-08T06:45:38.667Z,28.52
2023-05-08T06:48:06.133Z,29.13
2023-05-08T06:50:33.566Z,28.53
2023-05-08T06:53:00.603Z,29.33
2023-05-08T06:55:27.540Z,30.02
2023-05-08T06:57:54.276Z,30.60
2023-05-08T07:00:21.271Z,32.30
2023-05-08T07:02:48.110Z,32.50
2023-05-08T07:05:15.529Z,31.95
2023-05-08T07:07:42.939Z,32.97
2023-05-08T07:10:10.211Z,33.95
2023-05-08T07:12:37.284Z,33.13
2023-05-08T07:15:13.969Z,33.13
2023-05-08T07:17:45.198Z,37.22
2023-05-08T07:20:12.336Z,37.17
2023-05-08T07:22:39.256Z,40.70
2023-05-08T07:25:06.717Z,40.25
2023-05-08T07:27:33.486Z,39.70
2023-05-08T07:30:04.114Z,40.65
2023-05-08T07:32:33.785Z,40.58
2023-05-08T07:35:02.708Z,40.43
2023-05-08T07:37:29.639Z,42.95
2023-05-08T07:39:56.543Z,41.45
2023-05-08T07:42:23.529Z,42.30
2023-05-08T07:44:54.858Z,42.53
2023-05-08T07:47:22.567Z,41.47
2023-05-08T07:49:49.583Z,42.63
2023-05-08T07:52:16.699Z,45.33
2023-05-08T07:54:43.917Z,45.85
2023-05-08T07:57:11.748Z,46.65
2023-05-08T07:59:38.632Z,46.95
2023-05-08T08:02:05.659Z,48.72
2023-05-08T08:04:32.752Z,47.88
2023-05-08T08:07:02.228Z,49.60
2023-05-08T08:09:29.215Z,49.78
2023-05-08T08:11:56.017Z,47.97
2023-05-08T08:14:22.955Z,47.67
2023-05-08T08:16:49.882Z,46.70
2023-05-08T08:19:16.736Z,49.30
2023-05-08T08:21:44.488Z,47.28
2023-05-08T08:24:11.294Z,49.15
2023-05-08T08:26:38.161Z,47.45
2023-05-08T08:29:05.025Z,48.83
2023-05-08T08:31:31.913Z,50.65
2023-05-08T08:33:58.770Z,50.25
2023-05-08T08:36:25.626Z,50.92
2023-05-08T08:38:53.012Z,53.03
2023-05-08T08:41:19.872Z,53.17
2023-05-08T08:43:46.752Z,50.15
2023-05-08T08:46:15.426Z,49.22
2023-05-08T08:48:47.269Z,46.38
2023-05-08T08:51:31.332Z,48.25
2023-05-08T08:54:05.945Z,47.97
2023-05-08T08:56:33.493Z,47.75
2023-05-08T08:59:01.962Z,50.25
2023-05-08T09:01:30.283Z,52.38
2023-05-08T09:03:59.450Z,46.38
2023-05-08T09:06:27.708Z,46.10
2023-05-08T09:08:58.495Z,50.08
2023-05-08T09:11:25.902Z,50.03
2023-05-08T09:13:52.815Z,50.60
2023-05-08T09:16:19.807Z,49.90
2023-05-08T09:18:46.764Z,50.88
2023-05-08T09:21:13.793Z,50.92
2023-05-08T09:24:00.962Z,52.20
2023-05-08T09:26:28.684Z,51.65
2023-05-08T09:29:16.108Z,49.67
2023-05-08T09:31:51.692Z,49.43
2023-05-08T09:34:29.882Z,47.35
2023-05-08T09:37:14.894Z,48.85
2023-05-08T09:39:43.360Z,49.33
2023-05-08T09:42:10.300Z,48.08
2023-05-08T09:44:50.175Z,47.42
2023-05-08T09:47:20.516Z,47.45
2023-05-08T09:50:03.884Z,47.65
2023-05-08T09:52:32.054Z,47.35
2023-05-08T09:55:00.565Z,47.00
2023-05-08T09:57:28.394Z,49.58
2023-05-08T10:00:28.720Z,46.35
2023-05-08T10:03:03.374Z,48.53
2023-05-08T10:05:32.718Z,48.53
2023-05-08T10:08:18.271Z,48.63
2023-05-08T10:10:45.275Z,49.22
2023-05-08T10:13:12.149Z,48.08
2023-05-08T10:15:44.002Z,48.38
2023-05-08T10:18:12.183Z,47.67
2023-05-08T10:20:40.684Z,47.58
2023-05-08T10:23:11.899Z,48.03
2023-05-08T10:25:45.259Z,49.67
2023-05-08T10:28:33.001Z,50.35
2023-05-08T10:31:05.610Z,50.25
2023-05-08T10:33:34.708Z,50.58
2023-05-08T10:36:02.009Z,49.23
2023-05-08T10:38:30.992Z,48.30
2023-05-08T10:41:01.357Z,49.38
2023-05-08T10:43:31.077Z,47.30
2023-05-08T10:46:02.346Z,43.97
2023-05-08T10:48:45.297Z,43.65
2023-05-08T10:51:52.489Z,43.00
2023-05-08T10:54:26.633Z,41.38
2023-05-08T10:57:08.157Z,39.58
2023-05-08T10:59:36.867Z,40.50
2023-05-08T11:02:08.028Z,43.63
2023-05-08T11:04:36.015Z,41.55
2023-05-08T11:07:04.445Z,40.67
2023-05-08T11:09:47.740Z,40.65
2023-05-08T11:12:22.951Z,41.25
2023-05-08T11:15:06.605Z,38.90
2023-05-08T11:17:35.803Z,39.08
2023-05-08T11:20:05.496Z,39.00
2023-05-08T11:22:33.868Z,39.05
2023-05-08T11:25:02.279Z,36.95
2023-05-08T11:27:41.274Z,36.45
2023-05-08T11:30:26.231Z,36.65
2023-05-08T11:32:59.888Z,37.65
2023-05-08T11:35:54.774Z,36.80
2023-05-08T11:38:24.404Z,33.63
2023-05-08T11:40:58.120Z,32.13
2023-05-08T11:43:38.442Z,30.52
2023-05-08T11:46:10.712Z,31.47
2023-05-08T11:48:37.577Z,32.90
2023-05-08T11:51:04.789Z,32.70
2023-05-08T11:53:33.354Z,33.30
2023-05-08T11:56:00.800Z,32.13
2023-05-08T11:58:27.711Z,32.85
2023-05-08T12:00:55.340Z,30.40
2023-05-08T12:03:25.097Z,31.25
2023-05-08T12:05:56.053Z,30.75
2023-05-08T12:08:23.186Z,30.00
2023-05-08T12:10:57.753Z,25.75
2023-05-08T12:13:25.876Z,23.98
2023-05-08T12:15:54.963Z,21.40
2023-05-08T12:18:23.600Z,22.63
2023-05-08T12:20:56.937Z,29.10
2023-05-08T12:23:25.846Z,31.83
2023-05-08T12:25:55.330Z,31.23
2023-05-08T12:28:22.883Z,28.55
2023-05-08T12:30:50.136Z,30.60
2023-05-08T12:33:17.327Z,30.48
2023-05-08T12:35:44.652Z,28.77
2023-05-08T12:38:13.599Z,28.83
2023-05-08T12:40:44.556Z,27.33
2023-05-08T12:43:11.996Z,26.13
2023-05-08T12:45:41.023Z,25.63
2023-05-08T12:48:13.065Z,22.98
2023-05-08T12:50:47.396Z,21.70
2023-05-08T12:53:18.812Z,22.00
2023-05-08T12:55:55.865Z,22.35
2023-05-08T12:58:32.043Z,20.57
2023-05-08T13:01:11.973Z,21.15
2023-05-08T13:03:40.116Z,20.38
2023-05-08T13:06:07.864Z,20.20
2023-05-08T13:08:37.101Z,20.00
2023-05-08T13:11:06.355Z,20.88
2023-05-08T13:13:35.308Z,20.45
2023-05-08T13:16:06.924Z,21.15
2023-05-08T13:18:36.130Z,20.80
2023-05-08T13:21:03.724Z,21.75
2023-05-08T13:23:31.009Z,22.02
2023-05-08T13:25:57.884Z,22.70
2023-05-08T13:28:24.842Z,22.92
2023-05-08T13:30:51.762Z,23.33
2023-05-08T13:33:18.632Z,24.48
2023-05-08T13:35:45.704Z,23.70
2023-05-08T13:38:12.558Z,24.23
2023-05-08T13:40:39.600Z,22.90
2023-05-08T13:43:06.613Z,22.50
2023-05-08T13:45:33.593Z,23.25
2023-05-08T13:48:00.552Z,23.85
2023-05-08T13:50:27.402Z,24.25
2023-05-08T13:52:55.191Z,25.15
2023-05-08T13:55:23.247Z,23.52
2023-05-08T13:57:50.844Z,21.88
2023-05-08T14:00:18.356Z,22.15
2023-05-08T14:02:45.479Z,23.00
2023-05-08T14:05:12.667Z,22.98
2023-05-08T14:07:39.910Z,22.98
2023-05-08T14:10:07.085Z,23.63
2023-05-08T14:12:36.792Z,22.70
2023-05-08T14:15:07.404Z,23.40
2023-05-08T14:17:34.456Z,23.15
2023-05-08T14:20:01.430Z,22.63
2023-05-08T14:22:28.646Z,22.48
2023-05-08T14:24:55.525Z,23.30
2023-05-08T14:27:22.378Z,23.45
2023-05-08T14:29:49.641Z,23.33
2023-05-08T14:32:16.699Z,23.35
2023-05-08T14:34:43.586Z,24.67
2023-05-08T14:37:11.539Z,22.67
2023-05-08T14:39:38.504Z,23.90
2023-05-08T14:42:22.348Z,24.23
2023-05-08T14:44:50.426Z,24.08
2023-05-08T14:47:17.560Z,24.77
2023-05-08T14:49:44.478Z,24.30
2023-05-08T14:52:11.366Z,25.80
2023-05-08T14:54:38.449Z,24.25
2023-05-08T14:57:05.407Z,24.42
2023-05-08T14:59:32.251Z,24.73
2023-05-08T15:01:59.159Z,25.08
2023-05-08T15:04:26.091Z,25.27
2023-05-08T15:06:53.008Z,25.02
2023-05-08T15:09:19.832Z,26.90
2023-05-08T15:11:46.734Z,26.20
2023-05-08T15:14:13.541Z,26.38
2023-05-08T15:16:40.539Z,27.17
2023-05-08T15:19:09.335Z,27.42
2023-05-08T15:21:36.433Z,27.92
2023-05-08T15:24:03.375Z,27.77
2023-05-08T15:26:30.176Z,29.05
2023-05-08T15:28:57.197Z,31.63
2023-05-08T15:31:24.095Z,35.33
2023-05-08T15:33:51.016Z,38.10
2023-05-08T15:36:18.115Z,40.40
2023-05-08T15:38:44.891Z,41.13
2023-05-08T15:41:15.094Z,41.97
2023-05-08T15:43:43.193Z,42.33
2023-05-08T15:46:10.567Z,42.63
2023-05-08T15:48:37.497Z,43.92
2023-05-08T15:51:04.609Z,44.67
2023-05-08T15:53:33.130Z,46.28
2023-05-08T15:55:59.976Z,47.38
2023-05-08T15:58:27.679Z,48.40
2023-05-08T16:00:54.642Z,48.78
2023-05-08T16:03:21.658Z,48.08
2023-05-08T16:05:48.838Z,47.30
2023-05-08T16:08:15.892Z,46.83
2023-05-08T16:10:42.798Z,46.78
2023-05-08T16:13:09.814Z,47.10
2023-05-08T16:15:36.924Z,46.92
2023-05-08T16:18:03.960Z,47.35
2023-05-08T16:20:32.320Z,44.30
2023-05-08T16:23:00.553Z,39.30
2023-05-08T16:25:27.633Z,37.72
2023-05-08T16:27:54.520Z,32.40
2023-05-08T16:30:21.349Z,31.05
2023-05-08T16:32:48.313Z,29.63
2023-05-08T16:35:15.795Z,28.90
2023-05-08T16:37:43.439Z,28.00
2023-05-08T16:40:10.724Z,28.02
2023-05-08T16:42:37.793Z,28.13
2023-05-08T16:45:08.507Z,27.20
2023-05-08T16:47:36.041Z,27.23
2023-05-08T16:50:04.193Z,26.83
2023-05-08T16:52:32.764Z,26.60
2023-05-08T16:54:59.769Z,26.08
2023-05-08T16:57:27.567Z,25.83
2023-05-08T16:59:56.336Z,25.55
2023-05-08T17:02:23.322Z,25.30
2023-05-08T17:04:50.611Z,24.17
2023-05-08T17:07:17.999Z,24.13
2023-05-08T17:09:45.714Z,23.45
2023-05-08T17:12:12.753Z,22.55
2023-05-08T17:14:40.735Z,22.70
2023-05-08T17:17:08.033Z,21.85
2023-05-08T17:19:34.860Z,20.85
2023-05-08T17:22:02.188Z,19.97
2023-05-08T17:24:32.649Z,19.40
2023-05-08T17:26:59.792Z,19.92
2023-05-08T17:29:26.970Z,19.48
2023-05-08T17:31:54.069Z,19.58
2023-05-08T17:34:22.743Z,19.88
2023-05-08T17:36:50.040Z,18.45
2023-05-08T17:39:19.937Z,17.73
2023-05-08T17:41:48.331Z,18.70
2023-05-08T17:44:15.980Z,16.70
2023-05-08T17:46:42.974Z,17.63
2023-05-08T17:49:10.133Z,18.45
2023-05-08T17:51:37.429Z,18.57
2023-05-08T17:54:04.584Z,17.40
2023-05-08T17:56:31.951Z,22.30
2023-05-08T17:58:58.889Z,18.88
2023-05-08T18:01:26.196Z,18.70
2023-05-08T18:03:53.760Z,19.33
2023-05-08T18:06:20.943Z,18.95
2023-05-08T18:08:48.391Z,19.27
2023-05-08T18:11:24.354Z,20.58
2023-05-08T18:13:53.249Z,19.73
2023-05-08T18:16:21.710Z,19.05
2023-05-08T18:18:49.695Z,19.33
2023-05-08T18:21:16.658Z,19.65
2023-05-08T18:23:44.239Z,20.00
2023-05-08T18:26:17.512Z,19.52
2023-05-08T18:28:44.757Z,20.42
2023-05-08T18:31:13.478Z,20.92
2023-05-08T18:33:40.651Z,21.23
2023-05-08T18:36:07.556Z,21.05
2023-05-08T18:38:34.947Z,21.27
2023-05-08T18:41:03.366Z,21.83
2023-05-08T18:43:30.326Z,23.40
2023-05-08T18:45:59.095Z,22.88
2023-05-08T18:48:27.317Z,22.30
2023-05-08T18:50:58.383Z,23.17
2023-05-08T18:53:25.488Z,22.95
2023-05-08T18:55:52.943Z,23.55
2023-05-08T18:58:19.886Z,23.85
2023-05-08T19:00:46.804Z,24.58
2023-05-08T19:03:14.003Z,23.25
2023-05-08T19:05:41.930Z,22.70
2023-05-08T19:08:08.772Z,21.45
2023-05-08T19:10:35.819Z,22.00
2023-05-08T19:13:02.812Z,22.10
2023-05-08T19:15:29.671Z,22.33
2023-05-08T19:17:56.588Z,22.25
2023-05-08T19:20:23.601Z,22.10
2023-05-08T19:22:50.615Z,22.10
2023-05-08T19:25:17.613Z,22.40
2023-05-08T19:27:44.425Z,21.23
2023-05-08T19:30:12.111Z,21.52
2023-05-08T19:32:39.606Z,22.20
2023-05-08T19:35:08.210Z,21.90
2023-05-08T19:37:35.917Z,22.60
2023-05-08T19:40:02.987Z,23.75
2023-05-08T19:42:29.958Z,23.58
2023-05-08T19:44:56.774Z,25.40
2023-05-08T19:47:23.727Z,25.08
2023-05-08T19:49:51.296Z,24.90
2023-05-08T19:52:18.241Z,25.10
2023-05-08T19:54:45.721Z,24.92
2023-05-08T19:57:13.520Z,25.30
2023-05-08T19:59:40.462Z,25.42
2023-05-08T20:02:07.609Z,25.92
2023-05-08T20:04:48.552Z,26.45
2023-05-08T20:07:21.360Z,26.45
2023-05-08T20:09:48.266Z,26.35
2023-05-08T20:12:15.024Z,26.52
2023-05-08T20:14:41.942Z,26.05
2023-05-08T20:17:08.870Z,26.52
2023-05-08T20:19:35.836Z,26.00
2023-05-08T20:22:02.723Z,25.90
2023-05-08T20:24:29.736Z,25.75
2023-05-08T20:26:56.691Z,25.15
2023-05-08T20:29:24.209Z,25.73
2023-05-08T20:31:51.996Z,25.13
2023-05-08T20:34:21.692Z,25.52
2023-05-08T20:36:48.962Z,25.67
2023-05-08T20:39:15.910Z,25.17
2023-05-08T20:41:42.765Z,24.95
2023-05-08T20:44:09.752Z,24.40
2023-05-08T20:46:37.005Z,25.60
2023-05-08T20:49:04.083Z,24.50
2023-05-08T20:51:31.906Z,23.67
2023-05-08T20:53:58.879Z,24.33
2023-05-08T20:56:25.798Z,24.17
2023-05-08T20:58:52.576Z,25.27
2023-05-08T21:01:21.024Z,25.80
2023-05-08T21:03:48.158Z,25.63
2023-05-08T21:06:15.227Z,24.60
2023-05-08T21:08:42.004Z,24.30
2023-05-08T21:11:08.958Z,25.00
2023-05-08T21:13:35.825Z,24.50
2023-05-08T21:16:02.892Z,25.38
2023-05-08T21:18:29.718Z,26.13
2023-05-08T21:20:56.585Z,26.17
2023-05-08T21:23:23.405Z,25.90
2023-05-08T21:25:50.689Z,25.20
2023-05-08T21:28:17.694Z,25.83
2023-05-08T21:30:45.244Z,25.75
2023-05-08T21:33:16.338Z,27.02
2023-05-08T21:35:43.640Z,26.67
2023-05-08T21:38:12.161Z,26.30
2023-05-08T21:40:39.283Z,26.45
2023-05-08T21:43:06.276Z,27.05
2023-05-08T21:45:33.368Z,26.63
2023-05-08T21:48:00.602Z,25.88
2023-05-08T21:50:30.986Z,26.03
2023-05-08T21:52:57.852Z,27.25
2023-05-08T21:55:24.917Z,27.23
2023-05-08T21:57:52.079Z,27.50
2023-05-08T22:00:20.045Z,26.27
2023-05-08T22:02:47.070Z,26.73
2023-05-08T22:05:14.700Z,25.88
2023-05-08T22:07:41.941Z,25.50
2023-05-08T22:10:10.431Z,26.02
2023-05-08T22:12:37.545Z,26.27
2023-05-08T22:15:09.419Z,26.88
2023-05-08T22:17:36.634Z,24.83
2023-05-08T22:20:03.985Z,26.70
2023-05-08T22:22:30.947Z,26.88
2023-05-08T22:24:57.865Z,26.38
2023-05-08T22:27:24.762Z,27.08
2023-05-08T22:29:51.715Z,27.23
2023-05-08T22:32:18.717Z,27.50
2023-05-08T22:34:46.492Z,27.75
2023-05-08T22:37:13.332Z,27.77
2023-05-08T22:39:40.354Z,26.03
2023-05-08T22:42:07.277Z,28.60
2023-05-08T22:44:34.265Z,28.20
2023-05-08T22:47:01.595Z,28.27
2023-05-08T22:49:29.302Z,29.52
2023-05-08T22:51:56.234Z,28.48
2023-05-08T22:54:23.070Z,29.45
2023-05-08T22:56:49.975Z,28.63
2023-05-08T22:59:16.852Z,29.27
2023-05-08T23:01:43.779Z,30.50
2023-05-08T23:04:10.689Z,28.65
2023-05-08T23:06:37.635Z,29.52
2023-05-08T23:09:04.770Z,29.90
2023-05-08T23:11:31.807Z,28.27
2023-05-08T23:13:58.676Z,29.23
2023-05-08T23:16:25.861Z,29.67
2023-05-08T23:18:53.144Z,29.92
2023-05-08T23:21:20.056Z,29.77
2023-05-08T23:23:48.077Z,30.13
2023-05-08T23:26:15.139Z,30.80
2023-05-08T23:28:42.091Z,30.65
2023-05-08T23:31:08.986Z,31.17
2023-05-08T23:33:35.908Z,30.40
2023-05-08T23:36:02.752Z,30.70
2023-05-08T23:38:29.605Z,31.13
2023-05-08T23:40:56.426Z,30.15
2023-05-08T23:43:23.262Z,30.15
2023-05-08T23:45:50.031Z,30.55
2023-05-08T23:48:17.237Z,29.55
2023-05-08T23:50:44.110Z,30.83
2023-05-08T23:53:11.077Z,30.33
2023-05-08T23:55:38.056Z,30.60
2023-05-08T23:58:05.080Z,29.63
